Arctic - Eastern Arctic: Past 24 Hour Conditions

 

Taloyoak Airport

05:00 PM MDT 30 September 2014
This table is a summary of hourly weather conditions for the past 24 hours.
Date / Time
(MDT)
Wind(knots) Conditions Visibility(km) Pressure(kPa) Air tempC) Relative humidity(%) Dew pointC) Wind Chill
30 September 2014
17:00 WNW 18 gust 25 Drifting Snow 24 102.0 -7 81 -10 -17
16:00 NW 20 gust 26 Drifting Snow 24 102.0 -7 79 -10 -16
15:00 NW 22 gust 28 Drifting Snow 24 102.0 -7 82 -9 -17
14:00 NNW 25 Drifting Snow 24 102.1 -7 82 -10 -17
13:00 NW 23 Mainly Sunny 24 102.0 -6 80 -9 -16
12:00 NW 16 gust 22 Partly Cloudy 24 102.1 -7 80 -10 -15
11:00 NW 15 Mostly Cloudy 24 102.1 -7 82 -10 -15
10:00 NW 15 gust 20 Mostly Cloudy 24 102.1 -8 75 -11 -16
9:00 NW 14 Mainly Sunny 24 102.1 -9 79 -12 -17
8:00 WNW 16 Sunny 24 102.1 -9 73 -13 -19
7:00 NW 15 gust 20 Mainly Sunny 24 102.1 -10 83 -12 -19
6:00 NNW 17 Clear 24 102.1 -10 77 -13 -20
5:00 NW 14 Clear 24 102.1 -10 80 -13 -19
4:00 NNW 14 gust 20 Clear 24 102.2 -10 80 -12 -18
3:00 NNW 11 gust 17 Mainly Clear 24 102.2 -10 83 -12 -18
2:00 NW 16 Mainly Clear 24 102.1 -9 78 -12 -19
1:00 NNW 15 Mainly Clear 24 102.1 -10 80 -12 -19
0:00 N 9 Partly Cloudy 24 102.2 -10 77 -13 -17
29 September 2014
23:00 W 5 Partly Cloudy 24 102.2 -11 79 -14 -16
22:00 NW 13 Clear 24 102.2 -11 79 -14 -20
21:00 NW 14 Clear 24 102.2 -10 79 -13 -19
20:00 NNW 11 Clear 24 102.2 -10 80 -13 -18
19:00 NNW 12 gust 18 Mainly Clear 24 102.2 -9 78 -12 -17
18:00 NNW 16 gust 21 Mainly Clear 24 102.2 -8 72 -12 -17
17:00 NNW 16 Partly Cloudy 24 102.2 -7 77 -10 -16
 
Map of Arctic - Eastern Arctic marine weather areas Baker Lake Airport Chesterfield Inlet Airport Coral Harbour Airport Gjoa Haven Airport Kugaaruk Airport Rankin Inlet Airport Shepherd Bay Airport Whale Cove Airport Arctic Bay Brevoort Island Qikiqtarjuaq Airport Cape Dorset Airport Cape Dyer Cape Hooper Clyde Airport Grise Fiord Airport Hall Beach Airport Igloolik Airport Iqaluit Airport Longstaff Bluff Pangnirtung Airport Pond Inlet Airport Repulse Bay Airport Resolute Airport Resolution Island Rowley Island Airport Taloyoak Airport Wager Bay Akulivik Airport Ivujivik Airport Puvirnituq Airport Kangiqsujuaq Airport Kangirsuk Airport Quaqtaq Airport Tasiujaq Airport Cape Kakkiviak Cape Kiglapait Nain Airport Saglek Cape Mercy Kimmirut Airport Aupaluk Airport Salluit Airport Kangiqsualujjuaq Airport Fort Ross
Legend: buoyBuoy land stationLand Station